sensor_id;sensor_type;location;lat;lon;timestamp;P1;durP1;ratioP1;P2;durP2;ratioP2
18612;SDS011;9436;52.152;21.032;2022-10-16T00:01:16;15.83;;;13.03;;
18612;SDS011;9436;52.152;21.032;2022-10-16T00:03:44;14.77;;;13.27;;
18612;SDS011;9436;52.152;21.032;2022-10-16T00:06:12;15.10;;;13.50;;
18612;SDS011;9436;52.152;21.032;2022-10-16T00:08:40;17.10;;;12.93;;
18612;SDS011;9436;52.152;21.032;2022-10-16T00:11:08;14.73;;;13.13;;
18612;SDS011;9436;52.152;21.032;2022-10-16T00:13:37;14.73;;;13.13;;
18612;SDS011;9436;52.152;21.032;2022-10-16T00:16:08;16.80;;;13.47;;
18612;SDS011;9436;52.152;21.032;2022-10-16T00:18:36;17.77;;;13.87;;
18612;SDS011;9436;52.152;21.032;2022-10-16T00:21:03;16.03;;;13.90;;
18612;SDS011;9436;52.152;21.032;2022-10-16T00:23:31;15.80;;;14.20;;
18612;SDS011;9436;52.152;21.032;2022-10-16T00:25:59;15.90;;;13.80;;
18612;SDS011;9436;52.152;21.032;2022-10-16T00:28:27;18.80;;;14.20;;
18612;SDS011;9436;52.152;21.032;2022-10-16T00:30:55;18.10;;;14.50;;
18612;SDS011;9436;52.152;21.032;2022-10-16T00:33:24;17.77;;;14.37;;
18612;SDS011;9436;52.152;21.032;2022-10-16T00:35:51;15.87;;;14.07;;
18612;SDS011;9436;52.152;21.032;2022-10-16T00:38:18;16.17;;;14.27;;
18612;SDS011;9436;52.152;21.032;2022-10-16T00:40:45;16.07;;;14.37;;
18612;SDS011;9436;52.152;21.032;2022-10-16T00:43:13;16.63;;;14.83;;
18612;SDS011;9436;52.152;21.032;2022-10-16T00:45:58;18.40;;;14.80;;
18612;SDS011;9436;52.152;21.032;2022-10-16T00:48:28;18.43;;;15.30;;
18612;SDS011;9436;52.152;21.032;2022-10-16T00:50:55;18.43;;;15.13;;
18612;SDS011;9436;52.152;21.032;2022-10-16T00:53:24;18.10;;;15.20;;
18612;SDS011;9436;52.152;21.032;2022-10-16T00:55:52;17.97;;;15.30;;
18612;SDS011;9436;52.152;21.032;2022-10-16T00:58:20;16.03;;;13.73;;
18612;SDS011;9436;52.152;21.032;2022-10-16T01:00:47;16.50;;;14.70;;
18612;SDS011;9436;52.152;21.032;2022-10-16T01:03:25;16.93;;;13.63;;
18612;SDS011;9436;52.152;21.032;2022-10-16T01:05:59;17.10;;;15.27;;
18612;SDS011;9436;52.152;21.032;2022-10-16T01:08:48;17.37;;;14.57;;
18612;SDS011;9436;52.152;21.032;2022-10-16T01:11:27;19.60;;;15.93;;
18612;SDS011;9436;52.152;21.032;2022-10-16T01:14:02;16.73;;;14.93;;
18612;SDS011;9436;52.152;21.032;2022-10-16T01:16:38;16.57;;;14.13;;
18612;SDS011;9436;52.152;21.032;2022-10-16T01:19:12;16.60;;;14.83;;
18612;SDS011;9436;52.152;21.032;2022-10-16T01:21:43;18.33;;;14.80;;
18612;SDS011;9436;52.152;21.032;2022-10-16T01:24:15;18.87;;;14.93;;
18612;SDS011;9436;52.152;21.032;2022-10-16T01:27:04;19.13;;;15.53;;
18612;SDS011;9436;52.152;21.032;2022-10-16T01:29:34;16.77;;;14.97;;
18612;SDS011;9436;52.152;21.032;2022-10-16T01:32:09;17.23;;;14.77;;
18612;SDS011;9436;52.152;21.032;2022-10-16T01:34:42;18.77;;;14.63;;
18612;SDS011;9436;52.152;21.032;2022-10-16T01:37:14;19.57;;;15.30;;
18612;SDS011;9436;52.152;21.032;2022-10-16T01:39:54;17.87;;;15.77;;
18612;SDS011;9436;52.152;21.032;2022-10-16T01:42:28;17.30;;;15.40;;
18612;SDS011;9436;52.152;21.032;2022-10-16T01:44:58;19.23;;;14.67;;
18612;SDS011;9436;52.152;21.032;2022-10-16T01:47:27;17.97;;;15.20;;
18612;SDS011;9436;52.152;21.032;2022-10-16T01:49:56;18.27;;;15.67;;
18612;SDS011;9436;52.152;21.032;2022-10-16T01:52:25;18.60;;;15.67;;
18612;SDS011;9436;52.152;21.032;2022-10-16T01:54:54;17.77;;;15.57;;
18612;SDS011;9436;52.152;21.032;2022-10-16T01:57:23;17.70;;;15.37;;
18612;SDS011;9436;52.152;21.032;2022-10-16T01:59:53;18.27;;;15.70;;
18612;SDS011;9436;52.152;21.032;2022-10-16T02:02:24;19.00;;;15.83;;
18612;SDS011;9436;52.152;21.032;2022-10-16T02:04:55;18.00;;;15.20;;
18612;SDS011;9436;52.152;21.032;2022-10-16T02:07:25;17.93;;;15.23;;
18612;SDS011;9436;52.152;21.032;2022-10-16T02:09:52;19.73;;;15.43;;
18612;SDS011;9436;52.152;21.032;2022-10-16T02:12:21;16.50;;;14.77;;
18612;SDS011;9436;52.152;21.032;2022-10-16T02:14:54;18.87;;;15.63;;
18612;SDS011;9436;52.152;21.032;2022-10-16T02:17:21;17.00;;;15.07;;
18612;SDS011;9436;52.152;21.032;2022-10-16T02:19:49;17.10;;;15.30;;
18612;SDS011;9436;52.152;21.032;2022-10-16T02:22:20;17.87;;;15.83;;
18612;SDS011;9436;52.152;21.032;2022-10-16T02:24:54;18.67;;;15.40;;
18612;SDS011;9436;52.152;21.032;2022-10-16T02:27:26;18.70;;;16.70;;
18612;SDS011;9436;52.152;21.032;2022-10-16T02:30:00;17.60;;;15.43;;
18612;SDS011;9436;52.152;21.032;2022-10-16T02:32:33;19.07;;;15.73;;
18612;SDS011;9436;52.152;21.032;2022-10-16T02:35:03;17.40;;;15.43;;
18612;SDS011;9436;52.152;21.032;2022-10-16T02:37:32;18.43;;;16.40;;
18612;SDS011;9436;52.152;21.032;2022-10-16T02:39:59;17.60;;;15.80;;
18612;SDS011;9436;52.152;21.032;2022-10-16T02:42:28;22.33;;;16.50;;
18612;SDS011;9436;52.152;21.032;2022-10-16T02:45:00;17.03;;;15.20;;
18612;SDS011;9436;52.152;21.032;2022-10-16T02:47:27;17.33;;;15.47;;
18612;SDS011;9436;52.152;21.032;2022-10-16T02:49:54;19.07;;;16.23;;
18612;SDS011;9436;52.152;21.032;2022-10-16T02:52:21;17.63;;;15.83;;
18612;SDS011;9436;52.152;21.032;2022-10-16T02:54:48;17.90;;;15.50;;
18612;SDS011;9436;52.152;21.032;2022-10-16T02:57:15;17.17;;;15.17;;
18612;SDS011;9436;52.152;21.032;2022-10-16T02:59:42;21.07;;;15.60;;
18612;SDS011;9436;52.152;21.032;2022-10-16T03:02:11;17.70;;;15.90;;
18612;SDS011;9436;52.152;21.032;2022-10-16T03:04:38;17.53;;;15.70;;
18612;SDS011;9436;52.152;21.032;2022-10-16T03:07:05;18.37;;;16.00;;
18612;SDS011;9436;52.152;21.032;2022-10-16T03:09:32;17.27;;;15.47;;
18612;SDS011;9436;52.152;21.032;2022-10-16T03:11:59;17.90;;;15.50;;
18612;SDS011;9436;52.152;21.032;2022-10-16T03:14:26;16.70;;;15.00;;
18612;SDS011;9436;52.152;21.032;2022-10-16T03:16:53;17.53;;;15.73;;
18612;SDS011;9436;52.152;21.032;2022-10-16T03:19:22;17.53;;;15.27;;
18612;SDS011;9436;52.152;21.032;2022-10-16T03:21:49;17.40;;;15.60;;
18612;SDS011;9436;52.152;21.032;2022-10-16T03:24:16;17.53;;;15.60;;
18612;SDS011;9436;52.152;21.032;2022-10-16T03:26:43;17.63;;;15.77;;
18612;SDS011;9436;52.152;21.032;2022-10-16T03:29:10;17.13;;;15.33;;
18612;SDS011;9436;52.152;21.032;2022-10-16T03:31:37;19.07;;;15.27;;
18612;SDS011;9436;52.152;21.032;2022-10-16T03:34:04;18.10;;;15.47;;
18612;SDS011;9436;52.152;21.032;2022-10-16T03:36:32;16.87;;;15.07;;
18612;SDS011;9436;52.152;21.032;2022-10-16T03:38:59;16.80;;;15.00;;
18612;SDS011;9436;52.152;21.032;2022-10-16T03:41:29;17.53;;;15.67;;
18612;SDS011;9436;52.152;21.032;2022-10-16T03:43:56;16.27;;;14.67;;
18612;SDS011;9436;52.152;21.032;2022-10-16T03:46:23;17.00;;;15.13;;
18612;SDS011;9436;52.152;21.032;2022-10-16T03:48:50;17.93;;;14.93;;
18612;SDS011;9436;52.152;21.032;2022-10-16T03:51:17;17.73;;;15.30;;
18612;SDS011;9436;52.152;21.032;2022-10-16T03:53:45;16.47;;;14.80;;
18612;SDS011;9436;52.152;21.032;2022-10-16T03:56:12;15.90;;;14.23;;
18612;SDS011;9436;52.152;21.032;2022-10-16T03:58:39;17.40;;;14.53;;
18612;SDS011;9436;52.152;21.032;2022-10-16T04:01:06;16.67;;;14.90;;
18612;SDS011;9436;52.152;21.032;2022-10-16T04:03:33;16.53;;;14.73;;
18612;SDS011;9436;52.152;21.032;2022-10-16T04:06:00;16.50;;;14.73;;
18612;SDS011;9436;52.152;21.032;2022-10-16T04:08:27;16.53;;;14.60;;
18612;SDS011;9436;52.152;21.032;2022-10-16T04:10:56;17.10;;;15.13;;
18612;SDS011;9436;52.152;21.032;2022-10-16T04:13:23;15.63;;;13.67;;
18612;SDS011;9436;52.152;21.032;2022-10-16T04:15:50;16.97;;;14.63;;
18612;SDS011;9436;52.152;21.032;2022-10-16T04:18:17;16.63;;;14.53;;
18612;SDS011;9436;52.152;21.032;2022-10-16T04:20:44;16.27;;;14.13;;
18612;SDS011;9436;52.152;21.032;2022-10-16T04:23:11;16.60;;;14.50;;
18612;SDS011;9436;52.152;21.032;2022-10-16T04:25:38;16.27;;;13.83;;
18612;SDS011;9436;52.152;21.032;2022-10-16T04:28:07;15.37;;;13.87;;
18612;SDS011;9436;52.152;21.032;2022-10-16T04:30:34;14.83;;;13.33;;
18612;SDS011;9436;52.152;21.032;2022-10-16T04:33:01;15.40;;;13.77;;
18612;SDS011;9436;52.152;21.032;2022-10-16T04:35:28;16.47;;;14.77;;
18612;SDS011;9436;52.152;21.032;2022-10-16T04:37:56;16.87;;;14.07;;
18612;SDS011;9436;52.152;21.032;2022-10-16T04:40:23;16.50;;;14.53;;
18612;SDS011;9436;52.152;21.032;2022-10-16T04:42:50;15.87;;;14.27;;
18612;SDS011;9436;52.152;21.032;2022-10-16T04:45:20;16.20;;;13.90;;
18612;SDS011;9436;52.152;21.032;2022-10-16T04:47:47;16.23;;;14.33;;
18612;SDS011;9436;52.152;21.032;2022-10-16T04:50:14;16.40;;;14.60;;
18612;SDS011;9436;52.152;21.032;2022-10-16T04:52:41;15.53;;;13.93;;
18612;SDS011;9436;52.152;21.032;2022-10-16T04:55:08;16.37;;;14.50;;
18612;SDS011;9436;52.152;21.032;2022-10-16T04:57:35;17.33;;;14.77;;
18612;SDS011;9436;52.152;21.032;2022-10-16T05:00:02;18.97;;;15.43;;
18612;SDS011;9436;52.152;21.032;2022-10-16T05:02:31;16.50;;;14.80;;
18612;SDS011;9436;52.152;21.032;2022-10-16T05:04:58;16.60;;;14.47;;
18612;SDS011;9436;52.152;21.032;2022-10-16T05:07:25;17.00;;;14.73;;
18612;SDS011;9436;52.152;21.032;2022-10-16T05:09:52;16.47;;;14.17;;
18612;SDS011;9436;52.152;21.032;2022-10-16T05:12:19;19.73;;;14.90;;
18612;SDS011;9436;52.152;21.032;2022-10-16T05:14:46;16.23;;;14.13;;
18612;SDS011;9436;52.152;21.032;2022-10-16T05:17:13;15.70;;;14.00;;
18612;SDS011;9436;52.152;21.032;2022-10-16T05:19:42;16.13;;;14.43;;
18612;SDS011;9436;52.152;21.032;2022-10-16T05:22:09;16.63;;;14.77;;
18612;SDS011;9436;52.152;21.032;2022-10-16T05:24:36;17.53;;;14.47;;
18612;SDS011;9436;52.152;21.032;2022-10-16T05:27:03;16.83;;;14.10;;
18612;SDS011;9436;52.152;21.032;2022-10-16T05:29:30;16.27;;;14.57;;
18612;SDS011;9436;52.152;21.032;2022-10-16T05:31:57;16.43;;;14.83;;
18612;SDS011;9436;52.152;21.032;2022-10-16T05:34:24;17.87;;;14.43;;
18612;SDS011;9436;52.152;21.032;2022-10-16T05:36:52;16.83;;;15.10;;
18612;SDS011;9436;52.152;21.032;2022-10-16T05:39:19;16.80;;;14.93;;
18612;SDS011;9436;52.152;21.032;2022-10-16T05:41:46;16.03;;;13.83;;
18612;SDS011;9436;52.152;21.032;2022-10-16T05:44:16;17.03;;;14.37;;
18612;SDS011;9436;52.152;21.032;2022-10-16T05:46:43;18.83;;;14.67;;
18612;SDS011;9436;52.152;21.032;2022-10-16T05:49:10;18.40;;;14.63;;
18612;SDS011;9436;52.152;21.032;2022-10-16T05:51:37;15.50;;;13.87;;
18612;SDS011;9436;52.152;21.032;2022-10-16T05:54:05;18.67;;;15.20;;
18612;SDS011;9436;52.152;21.032;2022-10-16T05:56:32;16.23;;;14.17;;
18612;SDS011;9436;52.152;21.032;2022-10-16T05:58:59;16.70;;;14.27;;
18612;SDS011;9436;52.152;21.032;2022-10-16T06:01:26;16.70;;;13.73;;
18612;SDS011;9436;52.152;21.032;2022-10-16T06:03:53;16.27;;;14.57;;
18612;SDS011;9436;52.152;21.032;2022-10-16T06:06:21;16.03;;;14.43;;
18612;SDS011;9436;52.152;21.032;2022-10-16T06:08:49;17.10;;;14.90;;
18612;SDS011;9436;52.152;21.032;2022-10-16T06:11:18;16.93;;;15.13;;
18612;SDS011;9436;52.152;21.032;2022-10-16T06:13:48;15.83;;;14.30;;
18612;SDS011;9436;52.152;21.032;2022-10-16T06:16:16;18.10;;;15.20;;
18612;SDS011;9436;52.152;21.032;2022-10-16T06:18:43;19.47;;;15.23;;
18612;SDS011;9436;52.152;21.032;2022-10-16T06:21:11;17.17;;;14.53;;
18612;SDS011;9436;52.152;21.032;2022-10-16T06:23:40;16.77;;;14.97;;
18612;SDS011;9436;52.152;21.032;2022-10-16T06:26:07;16.57;;;14.80;;
18612;SDS011;9436;52.152;21.032;2022-10-16T06:28:36;16.27;;;14.57;;
18612;SDS011;9436;52.152;21.032;2022-10-16T06:31:03;16.30;;;14.60;;
18612;SDS011;9436;52.152;21.032;2022-10-16T06:33:31;15.73;;;14.03;;
18612;SDS011;9436;52.152;21.032;2022-10-16T06:36:02;16.60;;;14.40;;
18612;SDS011;9436;52.152;21.032;2022-10-16T06:38:30;16.30;;;14.53;;
18612;SDS011;9436;52.152;21.032;2022-10-16T06:40:57;16.00;;;14.07;;
18612;SDS011;9436;52.152;21.032;2022-10-16T06:43:24;16.20;;;14.60;;
18612;SDS011;9436;52.152;21.032;2022-10-16T06:45:53;16.73;;;14.50;;
18612;SDS011;9436;52.152;21.032;2022-10-16T06:48:22;17.70;;;14.60;;
18612;SDS011;9436;52.152;21.032;2022-10-16T06:50:56;16.93;;;14.90;;
18612;SDS011;9436;52.152;21.032;2022-10-16T06:53:24;16.43;;;14.73;;
18612;SDS011;9436;52.152;21.032;2022-10-16T06:55:52;15.90;;;14.17;;
18612;SDS011;9436;52.152;21.032;2022-10-16T06:58:19;17.50;;;15.60;;
18612;SDS011;9436;52.152;21.032;2022-10-16T07:00:46;15.27;;;13.60;;
18612;SDS011;9436;52.152;21.032;2022-10-16T07:03:15;15.77;;;14.27;;
18612;SDS011;9436;52.152;21.032;2022-10-16T07:05:42;19.37;;;15.87;;
18612;SDS011;9436;52.152;21.032;2022-10-16T07:08:09;17.23;;;14.70;;
18612;SDS011;9436;52.152;21.032;2022-10-16T07:10:36;15.50;;;13.77;;
18612;SDS011;9436;52.152;21.032;2022-10-16T07:13:03;15.30;;;13.70;;
18612;SDS011;9436;52.152;21.032;2022-10-16T07:15:32;17.67;;;14.60;;
18612;SDS011;9436;52.152;21.032;2022-10-16T07:18:00;16.73;;;14.93;;
18612;SDS011;9436;52.152;21.032;2022-10-16T07:20:28;16.10;;;13.50;;
18612;SDS011;9436;52.152;21.032;2022-10-16T07:22:55;15.77;;;14.07;;
18612;SDS011;9436;52.152;21.032;2022-10-16T07:25:22;15.03;;;13.30;;
18612;SDS011;9436;52.152;21.032;2022-10-16T07:27:49;16.33;;;14.70;;
18612;SDS011;9436;52.152;21.032;2022-10-16T07:30:16;15.87;;;13.53;;
18612;SDS011;9436;52.152;21.032;2022-10-16T07:32:43;14.80;;;13.30;;
18612;SDS011;9436;52.152;21.032;2022-10-16T07:35:10;14.40;;;12.97;;
18612;SDS011;9436;52.152;21.032;2022-10-16T07:37:38;15.50;;;13.70;;
18612;SDS011;9436;52.152;21.032;2022-10-16T07:40:06;15.07;;;13.60;;
18612;SDS011;9436;52.152;21.032;2022-10-16T07:42:34;16.83;;;13.67;;
18612;SDS011;9436;52.152;21.032;2022-10-16T07:45:00;15.87;;;14.17;;
18612;SDS011;9436;52.152;21.032;2022-10-16T07:47:27;16.97;;;14.07;;
18612;SDS011;9436;52.152;21.032;2022-10-16T07:49:54;15.07;;;13.47;;
18612;SDS011;9436;52.152;21.032;2022-10-16T07:52:21;14.50;;;13.03;;
18612;SDS011;9436;52.152;21.032;2022-10-16T07:54:50;15.10;;;13.50;;
18612;SDS011;9436;52.152;21.032;2022-10-16T07:57:17;16.03;;;13.40;;
18612;SDS011;9436;52.152;21.032;2022-10-16T07:59:45;14.93;;;13.33;;
18612;SDS011;9436;52.152;21.032;2022-10-16T08:02:12;16.07;;;13.43;;
18612;SDS011;9436;52.152;21.032;2022-10-16T08:04:39;14.57;;;13.17;;
18612;SDS011;9436;52.152;21.032;2022-10-16T08:07:06;14.60;;;13.03;;
18612;SDS011;9436;52.152;21.032;2022-10-16T08:09:34;16.10;;;12.63;;
18612;SDS011;9436;52.152;21.032;2022-10-16T08:12:03;14.63;;;12.80;;
18612;SDS011;9436;52.152;21.032;2022-10-16T08:14:30;14.80;;;13.03;;
18612;SDS011;9436;52.152;21.032;2022-10-16T08:16:57;14.33;;;12.57;;
18612;SDS011;9436;52.152;21.032;2022-10-16T08:19:24;14.40;;;12.90;;
18612;SDS011;9436;52.152;21.032;2022-10-16T08:21:51;16.83;;;13.80;;
18612;SDS011;9436;52.152;21.032;2022-10-16T08:24:18;14.87;;;13.27;;
18612;SDS011;9436;52.152;21.032;2022-10-16T08:26:45;13.93;;;12.43;;
18612;SDS011;9436;52.152;21.032;2022-10-16T08:29:14;13.43;;;12.03;;
18612;SDS011;9436;52.152;21.032;2022-10-16T08:31:41;14.20;;;12.70;;
18612;SDS011;9436;52.152;21.032;2022-10-16T08:34:08;13.70;;;12.30;;
18612;SDS011;9436;52.152;21.032;2022-10-16T08:36:35;13.60;;;12.13;;
18612;SDS011;9436;52.152;21.032;2022-10-16T08:39:02;13.30;;;11.90;;
18612;SDS011;9436;52.152;21.032;2022-10-16T08:44:39;13.87;;;12.33;;
18612;SDS011;9436;52.152;21.032;2022-10-16T08:47:21;16.20;;;12.57;;
18612;SDS011;9436;52.152;21.032;2022-10-16T08:49:54;12.97;;;11.67;;
18612;SDS011;9436;52.152;21.032;2022-10-16T08:52:25;13.53;;;12.17;;
18612;SDS011;9436;52.152;21.032;2022-10-16T08:54:56;14.23;;;12.13;;
18612;SDS011;9436;52.152;21.032;2022-10-16T08:57:24;14.03;;;12.50;;
18612;SDS011;9436;52.152;21.032;2022-10-16T08:59:54;13.40;;;12.00;;
18612;SDS011;9436;52.152;21.032;2022-10-16T09:02:27;14.10;;;11.73;;
18612;SDS011;9436;52.152;21.032;2022-10-16T09:05:02;13.37;;;11.97;;
18612;SDS011;9436;52.152;21.032;2022-10-16T09:07:51;12.87;;;11.47;;
18612;SDS011;9436;52.152;21.032;2022-10-16T09:10:27;12.53;;;11.13;;
18612;SDS011;9436;52.152;21.032;2022-10-16T09:13:07;13.63;;;12.20;;
18612;SDS011;9436;52.152;21.032;2022-10-16T09:15:46;13.03;;;11.70;;
18612;SDS011;9436;52.152;21.032;2022-10-16T09:18:20;14.03;;;12.00;;
18612;SDS011;9436;52.152;21.032;2022-10-16T09:20:57;13.30;;;11.30;;
18612;SDS011;9436;52.152;21.032;2022-10-16T09:23:31;12.73;;;10.83;;
18612;SDS011;9436;52.152;21.032;2022-10-16T09:26:01;12.23;;;11.13;;
18612;SDS011;9436;52.152;21.032;2022-10-16T09:28:30;13.00;;;11.57;;
18612;SDS011;9436;52.152;21.032;2022-10-16T09:30:59;14.90;;;11.80;;
18612;SDS011;9436;52.152;21.032;2022-10-16T09:33:28;12.67;;;11.30;;
18612;SDS011;9436;52.152;21.032;2022-10-16T09:35:59;13.90;;;10.43;;
18612;SDS011;9436;52.152;21.032;2022-10-16T09:38:29;12.43;;;10.70;;
18612;SDS011;9436;52.152;21.032;2022-10-16T09:40:58;12.17;;;11.00;;
18612;SDS011;9436;52.152;21.032;2022-10-16T09:43:28;14.80;;;11.20;;
18612;SDS011;9436;52.152;21.032;2022-10-16T09:46:03;11.63;;;10.43;;
18612;SDS011;9436;52.152;21.032;2022-10-16T09:48:34;13.87;;;11.23;;
18612;SDS011;9436;52.152;21.032;2022-10-16T09:51:05;12.40;;;10.93;;
18612;SDS011;9436;52.152;21.032;2022-10-16T09:53:41;11.87;;;10.77;;
18612;SDS011;9436;52.152;21.032;2022-10-16T09:56:10;13.07;;;11.67;;
18612;SDS011;9436;52.152;21.032;2022-10-16T09:58:41;14.73;;;11.27;;
18612;SDS011;9436;52.152;21.032;2022-10-16T10:01:14;12.60;;;11.17;;
18612;SDS011;9436;52.152;21.032;2022-10-16T10:03:42;11.43;;;10.43;;
18612;SDS011;9436;52.152;21.032;2022-10-16T10:06:17;12.87;;;10.97;;
18612;SDS011;9436;52.152;21.032;2022-10-16T10:08:55;13.00;;;11.67;;
18612;SDS011;9436;52.152;21.032;2022-10-16T10:11:37;12.37;;;11.13;;
18612;SDS011;9436;52.152;21.032;2022-10-16T10:14:05;12.90;;;10.43;;
18612;SDS011;9436;52.152;21.032;2022-10-16T10:16:37;12.33;;;10.97;;
18612;SDS011;9436;52.152;21.032;2022-10-16T10:19:08;12.13;;;10.83;;
18612;SDS011;9436;52.152;21.032;2022-10-16T10:21:40;11.80;;;10.60;;
18612;SDS011;9436;52.152;21.032;2022-10-16T10:24:09;11.10;;;10.00;;
18612;SDS011;9436;52.152;21.032;2022-10-16T10:26:37;12.27;;;10.37;;
18612;SDS011;9436;52.152;21.032;2022-10-16T10:29:10;11.67;;;10.47;;
18612;SDS011;9436;52.152;21.032;2022-10-16T10:31:43;12.00;;;10.17;;
18612;SDS011;9436;52.152;21.032;2022-10-16T10:34:23;11.40;;;10.20;;
18612;SDS011;9436;52.152;21.032;2022-10-16T10:37:02;11.57;;;10.30;;
18612;SDS011;9436;52.152;21.032;2022-10-16T10:39:38;11.57;;;10.47;;
18612;SDS011;9436;52.152;21.032;2022-10-16T10:42:16;11.30;;;10.10;;
18612;SDS011;9436;52.152;21.032;2022-10-16T10:44:57;11.23;;;10.00;;
18612;SDS011;9436;52.152;21.032;2022-10-16T10:47:45;10.80;;;9.70;;
18612;SDS011;9436;52.152;21.032;2022-10-16T10:50:20;11.47;;;10.37;;
18612;SDS011;9436;52.152;21.032;2022-10-16T10:52:56;12.10;;;10.40;;
18612;SDS011;9436;52.152;21.032;2022-10-16T10:55:33;10.73;;;9.73;;
18612;SDS011;9436;52.152;21.032;2022-10-16T10:58:10;11.37;;;10.23;;
18612;SDS011;9436;52.152;21.032;2022-10-16T11:00:54;10.87;;;9.77;;
18612;SDS011;9436;52.152;21.032;2022-10-16T11:06:28;13.77;;;10.70;;
18612;SDS011;9436;52.152;21.032;2022-10-16T11:08:59;12.47;;;10.00;;
18612;SDS011;9436;52.152;21.032;2022-10-16T11:11:30;12.73;;;9.73;;
18612;SDS011;9436;52.152;21.032;2022-10-16T11:14:02;10.73;;;9.73;;
18612;SDS011;9436;52.152;21.032;2022-10-16T11:16:35;11.37;;;10.17;;
18612;SDS011;9436;52.152;21.032;2022-10-16T11:19:11;10.80;;;9.70;;
18612;SDS011;9436;52.152;21.032;2022-10-16T11:21:44;12.53;;;10.30;;
18612;SDS011;9436;52.152;21.032;2022-10-16T11:24:19;10.57;;;9.47;;
18612;SDS011;9436;52.152;21.032;2022-10-16T11:26:49;10.50;;;9.40;;
18612;SDS011;9436;52.152;21.032;2022-10-16T11:29:19;10.97;;;9.97;;
18612;SDS011;9436;52.152;21.032;2022-10-16T11:31:54;11.67;;;10.17;;
18612;SDS011;9436;52.152;21.032;2022-10-16T11:34:27;9.47;;;8.63;;
18612;SDS011;9436;52.152;21.032;2022-10-16T11:36:58;11.43;;;9.83;;
18612;SDS011;9436;52.152;21.032;2022-10-16T11:39:32;9.93;;;8.67;;
18612;SDS011;9436;52.152;21.032;2022-10-16T11:42:01;10.33;;;9.27;;
18612;SDS011;9436;52.152;21.032;2022-10-16T11:44:38;10.73;;;9.63;;
18612;SDS011;9436;52.152;21.032;2022-10-16T11:47:21;10.90;;;8.70;;
18612;SDS011;9436;52.152;21.032;2022-10-16T11:49:55;9.50;;;8.60;;
18612;SDS011;9436;52.152;21.032;2022-10-16T11:52:25;10.00;;;9.10;;
18612;SDS011;9436;52.152;21.032;2022-10-16T11:54:59;10.67;;;9.17;;
18612;SDS011;9436;52.152;21.032;2022-10-16T11:57:31;10.30;;;9.27;;
18612;SDS011;9436;52.152;21.032;2022-10-16T12:00:04;9.77;;;8.87;;
18612;SDS011;9436;52.152;21.032;2022-10-16T12:02:38;10.30;;;9.30;;
18612;SDS011;9436;52.152;21.032;2022-10-16T12:05:19;10.57;;;9.57;;
18612;SDS011;9436;52.152;21.032;2022-10-16T12:07:56;11.23;;;9.00;;
18612;SDS011;9436;52.152;21.032;2022-10-16T12:10:30;10.03;;;9.03;;
18612;SDS011;9436;52.152;21.032;2022-10-16T12:13:01;9.80;;;8.87;;
18612;SDS011;9436;52.152;21.032;2022-10-16T12:15:29;10.20;;;9.20;;
18612;SDS011;9436;52.152;21.032;2022-10-16T12:17:58;9.77;;;8.93;;
18612;SDS011;9436;52.152;21.032;2022-10-16T12:20:28;12.70;;;9.67;;
18612;SDS011;9436;52.152;21.032;2022-10-16T12:22:57;9.53;;;8.53;;
18612;SDS011;9436;52.152;21.032;2022-10-16T12:25:27;9.97;;;8.87;;
18612;SDS011;9436;52.152;21.032;2022-10-16T12:27:59;9.53;;;8.40;;
18612;SDS011;9436;52.152;21.032;2022-10-16T12:30:29;10.30;;;9.40;;
18612;SDS011;9436;52.152;21.032;2022-10-16T12:32:58;9.20;;;8.30;;
18612;SDS011;9436;52.152;21.032;2022-10-16T12:35:29;9.60;;;8.70;;
18612;SDS011;9436;52.152;21.032;2022-10-16T12:38:06;10.23;;;8.97;;
18612;SDS011;9436;52.152;21.032;2022-10-16T12:40:35;11.30;;;8.80;;
18612;SDS011;9436;52.152;21.032;2022-10-16T12:46:20;9.67;;;8.77;;
18612;SDS011;9436;52.152;21.032;2022-10-16T12:48:50;10.43;;;9.40;;
18612;SDS011;9436;52.152;21.032;2022-10-16T12:51:23;9.47;;;8.50;;
18612;SDS011;9436;52.152;21.032;2022-10-16T12:53:59;9.53;;;8.60;;
18612;SDS011;9436;52.152;21.032;2022-10-16T12:56:28;10.40;;;9.40;;
18612;SDS011;9436;52.152;21.032;2022-10-16T12:59:09;9.57;;;8.67;;
18612;SDS011;9436;52.152;21.032;2022-10-16T13:01:50;10.10;;;9.00;;
18612;SDS011;9436;52.152;21.032;2022-10-16T13:04:29;9.37;;;8.37;;
18612;SDS011;9436;52.152;21.032;2022-10-16T13:07:28;9.43;;;8.53;;
18612;SDS011;9436;52.152;21.032;2022-10-16T13:10:12;9.37;;;8.33;;
18612;SDS011;9436;52.152;21.032;2022-10-16T13:13:02;8.70;;;7.90;;
18612;SDS011;9436;52.152;21.032;2022-10-16T13:15:48;9.47;;;8.17;;
18612;SDS011;9436;52.152;21.032;2022-10-16T13:18:33;8.30;;;7.60;;
18612;SDS011;9436;52.152;21.032;2022-10-16T13:21:14;8.60;;;7.13;;
18612;SDS011;9436;52.152;21.032;2022-10-16T13:23:50;8.30;;;7.50;;
18612;SDS011;9436;52.152;21.032;2022-10-16T13:26:28;8.57;;;7.77;;
18612;SDS011;9436;52.152;21.032;2022-10-16T13:29:05;9.20;;;7.97;;
18612;SDS011;9436;52.152;21.032;2022-10-16T13:31:32;8.87;;;8.03;;
18612;SDS011;9436;52.152;21.032;2022-10-16T13:34:00;9.07;;;8.20;;
18612;SDS011;9436;52.152;21.032;2022-10-16T13:36:28;10.67;;;8.20;;
18612;SDS011;9436;52.152;21.032;2022-10-16T13:39:03;11.17;;;8.37;;
18612;SDS011;9436;52.152;21.032;2022-10-16T13:41:37;9.63;;;8.70;;
18612;SDS011;9436;52.152;21.032;2022-10-16T13:44:04;8.80;;;7.90;;
18612;SDS011;9436;52.152;21.032;2022-10-16T13:46:37;9.03;;;8.17;;
18612;SDS011;9436;52.152;21.032;2022-10-16T13:49:05;9.80;;;8.70;;
18612;SDS011;9436;52.152;21.032;2022-10-16T13:51:38;9.60;;;8.53;;
18612;SDS011;9436;52.152;21.032;2022-10-16T13:54:07;8.97;;;8.07;;
18612;SDS011;9436;52.152;21.032;2022-10-16T13:56:38;8.53;;;7.80;;
18612;SDS011;9436;52.152;21.032;2022-10-16T13:59:20;9.03;;;8.13;;
18612;SDS011;9436;52.152;21.032;2022-10-16T14:01:50;8.80;;;7.90;;
18612;SDS011;9436;52.152;21.032;2022-10-16T14:04:20;9.20;;;8.30;;
18612;SDS011;9436;52.152;21.032;2022-10-16T14:06:49;9.03;;;8.13;;
18612;SDS011;9436;52.152;21.032;2022-10-16T14:09:20;9.67;;;8.67;;
18612;SDS011;9436;52.152;21.032;2022-10-16T14:11:51;10.23;;;8.70;;
18612;SDS011;9436;52.152;21.032;2022-10-16T14:14:20;8.47;;;7.33;;
18612;SDS011;9436;52.152;21.032;2022-10-16T14:16:48;9.53;;;8.50;;
18612;SDS011;9436;52.152;21.032;2022-10-16T14:19:18;9.00;;;7.97;;
18612;SDS011;9436;52.152;21.032;2022-10-16T14:21:48;10.03;;;8.17;;
18612;SDS011;9436;52.152;21.032;2022-10-16T14:24:24;8.70;;;7.80;;
18612;SDS011;9436;52.152;21.032;2022-10-16T14:26:53;13.03;;;8.57;;
18612;SDS011;9436;52.152;21.032;2022-10-16T14:29:21;9.40;;;8.57;;
18612;SDS011;9436;52.152;21.032;2022-10-16T14:31:56;9.00;;;8.17;;
18612;SDS011;9436;52.152;21.032;2022-10-16T14:34:25;9.93;;;8.80;;
18612;SDS011;9436;52.152;21.032;2022-10-16T14:36:55;9.23;;;8.10;;
18612;SDS011;9436;52.152;21.032;2022-10-16T14:39:24;9.20;;;8.40;;
18612;SDS011;9436;52.152;21.032;2022-10-16T14:41:54;9.33;;;8.40;;
18612;SDS011;9436;52.152;21.032;2022-10-16T14:44:25;10.17;;;8.70;;
18612;SDS011;9436;52.152;21.032;2022-10-16T14:46:55;10.67;;;8.80;;
18612;SDS011;9436;52.152;21.032;2022-10-16T14:49:24;9.23;;;8.33;;
18612;SDS011;9436;52.152;21.032;2022-10-16T14:51:53;10.20;;;9.20;;
18612;SDS011;9436;52.152;21.032;2022-10-16T14:54:20;9.97;;;9.07;;